McCaskill, Arkansas
Current Conditions -  °F | °C
As of 8:56 AM on Thursday 23 Oct 2014 (Local Time) from KADF Reporting Station
Clear Clear  
Wind Chill: 52°   Ceiling: Unl
Heat Index: 52°   Visibility: 10mi
Dew Point: 48°   Wind: 5mph
Humidity: 86%   Direction: 40°NE
Pressure: 30.22"   Gusts: NA
Location:  33.92°N, 93.64°W
Report Text: KADF 231356Z AUTO 04004KT 10SM CLR 11/09 A3022 RMK AO2 T01110088 SLP247
Loading
Personal Weather Stations






























Interactive Weather Map
Tropical Storm Tracking
New forecast layout! Learn more

10-Day Weather Forecast

Advertisements
Track Severe Weather on mobile